Terminal Aerodrome Forecast
Issued by NWS

Home | Current Version | Previous Version | Text Only | Print | Product List | Glossary On
Versions: 1 2 3 4 5 6 7 8 9 10 11 12 13 14 15 16 17 18 19 20 21 22 23 24 25
462
FTPA31 PHFO 290547
TAFHNY
TAF
PHNY 290547Z 2906/3006 05020G28KT P6SM FEW035
     FM290800 05014KT P6SM FEW035
     FM291800 05016G24KT P6SM SCT025 BKN035
     FM292200 05020G28KT P6SM SCT035
     FM300500 05014KT P6SM SCT035=

USA.gov is the U.S. government's official web portal to all federal, state and local government web resources and services.